Terminal Aerodrome Forecast
Issued by NWS Mt. Holly, NJ

Home | Current Version | Previous Version | Text Only | Print | Product List | Glossary On
Versions: 1 2 3 4 5 6 7 8 9 10 11 12 13 14 15 16
083
FTUS41 KPHI 212323
TAFABE
TAF
KABE 212323Z 2200/2224 18004KT P6SM BKN200
     FM220800 VRB02KT P6SM SCT035 OVC060
      TEMPO 2208/2212 BKN025
     FM221400 22003KT P6SM FEW030 BKN060
     FM221800 23006KT P6SM BKN200=

USA.gov is the U.S. government's official web portal to all federal, state and local government web resources and services.